sensor_id;sensor_type;location;lat;lon;timestamp;pressure;altitude;pressure_sealevel;temperature;humidity
68107;BME280;54892;47.488;19.026;2023-04-07T00:01:58;99745.09;;;3.71;69.06
68107;BME280;54892;47.488;19.026;2023-04-07T00:05:01;99744.63;;;3.56;69.72
68107;BME280;54892;47.488;19.026;2023-04-07T00:08:06;99742.59;;;3.58;69.57
68107;BME280;54892;47.488;19.026;2023-04-07T00:11:09;99736.75;;;3.62;69.37
68107;BME280;54892;47.488;19.026;2023-04-07T00:14:12;99745.72;;;3.66;69.19
68107;BME280;54892;47.488;19.026;2023-04-07T00:17:15;99738.53;;;3.62;68.99
68107;BME280;54892;47.488;19.026;2023-04-07T00:20:19;99740.47;;;3.73;68.68
68107;BME280;54892;47.488;19.026;2023-04-07T00:23:23;99737.22;;;3.53;69.19
68107;BME280;54892;47.488;19.026;2023-04-07T00:26:26;99738.34;;;3.63;69.13
68107;BME280;54892;47.488;19.026;2023-04-07T00:29:32;99731.03;;;3.72;68.67
68107;BME280;54892;47.488;19.026;2023-04-07T00:32:35;99737.69;;;3.68;68.85
68107;BME280;54892;47.488;19.026;2023-04-07T00:35:38;99722.97;;;3.74;68.21
68107;BME280;54892;47.488;19.026;2023-04-07T00:38:42;99722.94;;;3.55;68.43
68107;BME280;54892;47.488;19.026;2023-04-07T00:41:45;99724.47;;;3.63;68.55
68107;BME280;54892;47.488;19.026;2023-04-07T00:44:48;99720.06;;;3.63;68.14
68107;BME280;54892;47.488;19.026;2023-04-07T00:47:51;99711.94;;;3.72;67.93
68107;BME280;54892;47.488;19.026;2023-04-07T00:50:55;99727.97;;;3.75;67.81
68107;BME280;54892;47.488;19.026;2023-04-07T00:53:59;99714.84;;;3.82;67.65
68107;BME280;54892;47.488;19.026;2023-04-07T00:57:02;99716.66;;;3.81;67.98
68107;BME280;54892;47.488;19.026;2023-04-07T01:00:06;99711.59;;;3.87;67.80
68107;BME280;54892;47.488;19.026;2023-04-07T01:03:11;99705.38;;;3.88;67.45
68107;BME280;54892;47.488;19.026;2023-04-07T01:06:19;99718.53;;;3.93;68.08
68107;BME280;54892;47.488;19.026;2023-04-07T01:09:26;99711.09;;;3.96;67.78
68107;BME280;54892;47.488;19.026;2023-04-07T01:12:33;99701.94;;;4.06;67.04
68107;BME280;54892;47.488;19.026;2023-04-07T01:15:38;99703.63;;;4.00;66.94
68107;BME280;54892;47.488;19.026;2023-04-07T01:18:41;99704.47;;;3.94;66.54
68107;BME280;54892;47.488;19.026;2023-04-07T01:21:46;99693.91;;;3.89;66.14
68107;BME280;54892;47.488;19.026;2023-04-07T01:25:05;99698.91;;;3.90;67.07
68107;BME280;54892;47.488;19.026;2023-04-07T01:28:19;99707.25;;;3.99;66.58
68107;BME280;54892;47.488;19.026;2023-04-07T01:31:30;99694.63;;;3.96;67.28
68107;BME280;54892;47.488;19.026;2023-04-07T01:34:33;99699.34;;;3.87;67.16
68107;BME280;54892;47.488;19.026;2023-04-07T01:37:37;99694.47;;;3.91;67.77
68107;BME280;54892;47.488;19.026;2023-04-07T01:40:40;99690.47;;;3.88;67.30
68107;BME280;54892;47.488;19.026;2023-04-07T01:43:45;99688.37;;;3.78;67.57
68107;BME280;54892;47.488;19.026;2023-04-07T01:46:50;99684.16;;;3.77;67.58
68107;BME280;54892;47.488;19.026;2023-04-07T01:49:54;99681.72;;;3.83;67.61
68107;BME280;54892;47.488;19.026;2023-04-07T01:52:58;99689.13;;;3.86;67.90
68107;BME280;54892;47.488;19.026;2023-04-07T01:56:02;99687.87;;;3.88;67.63
68107;BME280;54892;47.488;19.026;2023-04-07T01:59:05;99691.34;;;3.82;67.81
68107;BME280;54892;47.488;19.026;2023-04-07T02:02:09;99693.53;;;3.85;67.98
68107;BME280;54892;47.488;19.026;2023-04-07T02:05:13;99687.53;;;3.85;67.87
68107;BME280;54892;47.488;19.026;2023-04-07T02:08:18;99695.78;;;3.81;67.77
68107;BME280;54892;47.488;19.026;2023-04-07T02:11:23;99692.16;;;3.83;68.30
68107;BME280;54892;47.488;19.026;2023-04-07T02:14:26;99683.50;;;3.82;68.33
68107;BME280;54892;47.488;19.026;2023-04-07T02:17:30;99685.94;;;3.84;69.02
68107;BME280;54892;47.488;19.026;2023-04-07T02:20:35;99689.53;;;3.83;68.99
68107;BME280;54892;47.488;19.026;2023-04-07T02:23:39;99684.91;;;3.85;68.96
68107;BME280;54892;47.488;19.026;2023-04-07T02:26:41;99692.75;;;3.85;69.41
68107;BME280;54892;47.488;19.026;2023-04-07T02:29:44;99690.56;;;3.81;69.01
68107;BME280;54892;47.488;19.026;2023-04-07T02:32:49;99690.72;;;3.68;69.44
68107;BME280;54892;47.488;19.026;2023-04-07T02:35:52;99677.81;;;3.73;69.15
68107;BME280;54892;47.488;19.026;2023-04-07T02:38:55;99682.72;;;3.81;69.29
68107;BME280;54892;47.488;19.026;2023-04-07T02:41:58;99689.53;;;3.83;69.11
68107;BME280;54892;47.488;19.026;2023-04-07T02:45:01;99680.28;;;3.87;68.91
68107;BME280;54892;47.488;19.026;2023-04-07T02:48:06;99681.63;;;3.89;68.45
68107;BME280;54892;47.488;19.026;2023-04-07T02:51:09;99685.84;;;3.90;68.61
68107;BME280;54892;47.488;19.026;2023-04-07T02:54:12;99681.22;;;3.92;68.90
68107;BME280;54892;47.488;19.026;2023-04-07T02:57:15;99686.63;;;3.91;68.32
68107;BME280;54892;47.488;19.026;2023-04-07T03:00:18;99683.91;;;3.86;68.31
68107;BME280;54892;47.488;19.026;2023-04-07T03:03:23;99683.91;;;3.86;68.31
68107;BME280;54892;47.488;19.026;2023-04-07T03:06:25;99678.88;;;3.84;68.20
68107;BME280;54892;47.488;19.026;2023-04-07T03:09:28;99676.25;;;3.84;68.03
68107;BME280;54892;47.488;19.026;2023-04-07T03:12:32;99678.69;;;3.86;68.33
68107;BME280;54892;47.488;19.026;2023-04-07T03:15:34;99676.66;;;3.88;68.30
68107;BME280;54892;47.488;19.026;2023-04-07T03:18:38;99678.59;;;3.92;68.15
68107;BME280;54892;47.488;19.026;2023-04-07T03:21:42;99680.41;;;3.92;68.15
68107;BME280;54892;47.488;19.026;2023-04-07T03:24:45;99682.81;;;3.93;68.08
68107;BME280;54892;47.488;19.026;2023-04-07T03:27:48;99689.91;;;4.05;68.68
68107;BME280;54892;47.488;19.026;2023-04-07T03:30:51;99673.97;;;3.94;68.17
68107;BME280;54892;47.488;19.026;2023-04-07T03:33:55;99679.63;;;3.91;68.89
68107;BME280;54892;47.488;19.026;2023-04-07T03:36:58;99677.34;;;3.95;68.75
68107;BME280;54892;47.488;19.026;2023-04-07T03:40:02;99671.97;;;3.90;68.31
68107;BME280;54892;47.488;19.026;2023-04-07T03:43:04;99676.78;;;3.74;68.43
68107;BME280;54892;47.488;19.026;2023-04-07T03:46:13;99673.03;;;3.89;68.24
68107;BME280;54892;47.488;19.026;2023-04-07T03:49:17;99676.34;;;3.96;68.04
68107;BME280;54892;47.488;19.026;2023-04-07T03:52:20;99683.06;;;4.04;68.31
68107;BME280;54892;47.488;19.026;2023-04-07T03:55:22;99686.56;;;3.97;68.39
68107;BME280;54892;47.488;19.026;2023-04-07T03:58:26;99671.13;;;3.96;68.23
68107;BME280;54892;47.488;19.026;2023-04-07T04:01:28;99676.34;;;3.96;68.28
68107;BME280;54892;47.488;19.026;2023-04-07T04:04:33;99694.34;;;4.04;68.20
68107;BME280;54892;47.488;19.026;2023-04-07T04:07:36;99693.03;;;3.95;68.47
68107;BME280;54892;47.488;19.026;2023-04-07T04:10:38;99690.56;;;3.81;68.85
68107;BME280;54892;47.488;19.026;2023-04-07T04:13:41;99695.94;;;3.87;68.78
68107;BME280;54892;47.488;19.026;2023-04-07T04:16:44;99692.31;;;3.88;68.77
68107;BME280;54892;47.488;19.026;2023-04-07T04:19:49;99702.88;;;3.93;69.12
68107;BME280;54892;47.488;19.026;2023-04-07T04:22:52;99705.13;;;3.89;69.13
68107;BME280;54892;47.488;19.026;2023-04-07T04:25:55;99705.44;;;3.81;69.13
68107;BME280;54892;47.488;19.026;2023-04-07T04:29:00;99699.56;;;3.86;69.40
68107;BME280;54892;47.488;19.026;2023-04-07T04:32:04;99701.34;;;3.85;69.50
68107;BME280;54892;47.488;19.026;2023-04-07T04:35:08;99711.37;;;3.88;69.33
68107;BME280;54892;47.488;19.026;2023-04-07T04:38:11;99713.19;;;3.88;69.44
68107;BME280;54892;47.488;19.026;2023-04-07T04:41:14;99713.19;;;3.88;69.29
68107;BME280;54892;47.488;19.026;2023-04-07T04:44:18;99709.25;;;3.78;69.86
68107;BME280;54892;47.488;19.026;2023-04-07T04:47:21;99709.84;;;3.80;70.05
68107;BME280;54892;47.488;19.026;2023-04-07T04:50:25;99709.06;;;3.80;70.25
68107;BME280;54892;47.488;19.026;2023-04-07T04:53:28;99712.31;;;3.94;69.85
68107;BME280;54892;47.488;19.026;2023-04-07T04:56:31;99721.75;;;3.95;69.49
68107;BME280;54892;47.488;19.026;2023-04-07T04:59:34;99729.94;;;3.80;69.94
68107;BME280;54892;47.488;19.026;2023-04-07T05:02:37;99732.41;;;3.75;70.29
68107;BME280;54892;47.488;19.026;2023-04-07T05:05:42;99717.59;;;3.69;70.72
68107;BME280;54892;47.488;19.026;2023-04-07T05:08:45;99721.75;;;6.87;88.25
68107;BME280;54892;47.488;19.026;2023-04-07T05:11:48;99725.00;;;8.79;83.01
68107;BME280;54892;47.488;19.026;2023-04-07T05:14:51;99741.13;;;10.11;73.14
68107;BME280;54892;47.488;19.026;2023-04-07T05:17:54;99745.75;;;10.57;67.38
68107;BME280;54892;47.488;19.026;2023-04-07T05:20:59;99733.28;;;9.73;57.05
68107;BME280;54892;47.488;19.026;2023-04-07T05:24:02;99746.38;;;7.71;57.23
68107;BME280;54892;47.488;19.026;2023-04-07T05:27:05;99742.66;;;6.53;60.83
68107;BME280;54892;47.488;19.026;2023-04-07T05:30:09;99743.03;;;5.56;63.89
68107;BME280;54892;47.488;19.026;2023-04-07T05:33:12;99751.78;;;4.72;66.95
68107;BME280;54892;47.488;19.026;2023-04-07T05:36:17;99748.94;;;4.43;68.36
68107;BME280;54892;47.488;19.026;2023-04-07T05:39:21;99747.28;;;4.30;69.13
68107;BME280;54892;47.488;19.026;2023-04-07T05:42:24;99751.47;;;4.50;69.03
68107;BME280;54892;47.488;19.026;2023-04-07T05:45:27;99748.75;;;4.56;68.76
68107;BME280;54892;47.488;19.026;2023-04-07T05:48:30;99758.94;;;4.46;68.92
68107;BME280;54892;47.488;19.026;2023-04-07T05:51:34;99759.00;;;4.21;69.88
68107;BME280;54892;47.488;19.026;2023-04-07T05:54:37;99744.16;;;4.52;69.38
68107;BME280;54892;47.488;19.026;2023-04-07T05:57:41;99757.53;;;4.62;68.92
68107;BME280;54892;47.488;19.026;2023-04-07T06:00:44;99754.34;;;4.60;68.76
68107;BME280;54892;47.488;19.026;2023-04-07T06:03:47;99760.75;;;4.27;70.10
68107;BME280;54892;47.488;19.026;2023-04-07T06:06:51;99762.53;;;4.15;70.69
68107;BME280;54892;47.488;19.026;2023-04-07T06:09:55;99755.28;;;4.17;70.44
68107;BME280;54892;47.488;19.026;2023-04-07T06:12:58;99752.00;;;4.21;70.63
68107;BME280;54892;47.488;19.026;2023-04-07T06:16:02;99756.28;;;4.34;70.38
68107;BME280;54892;47.488;19.026;2023-04-07T06:19:05;99753.78;;;4.39;70.38
68107;BME280;54892;47.488;19.026;2023-04-07T06:22:09;99751.31;;;4.45;70.23
68107;BME280;54892;47.488;19.026;2023-04-07T06:25:12;99752.50;;;4.30;70.15
68107;BME280;54892;47.488;19.026;2023-04-07T06:28:16;99757.22;;;4.21;70.73
68107;BME280;54892;47.488;19.026;2023-04-07T06:31:19;99753.19;;;4.37;70.32
68107;BME280;54892;47.488;19.026;2023-04-07T06:34:23;99762.00;;;4.43;70.26
68107;BME280;54892;47.488;19.026;2023-04-07T06:37:27;99758.00;;;4.40;70.54
68107;BME280;54892;47.488;19.026;2023-04-07T06:40:30;99767.25;;;4.24;71.01
68107;BME280;54892;47.488;19.026;2023-04-07T06:43:33;99772.50;;;4.36;71.45
68107;BME280;54892;47.488;19.026;2023-04-07T06:46:36;99773.37;;;4.49;71.04
68107;BME280;54892;47.488;19.026;2023-04-07T06:49:39;99779.66;;;4.60;70.81
68107;BME280;54892;47.488;19.026;2023-04-07T06:52:43;99777.06;;;4.60;69.96
68107;BME280;54892;47.488;19.026;2023-04-07T06:55:46;99776.12;;;4.54;69.72
68107;BME280;54892;47.488;19.026;2023-04-07T06:58:50;99779.47;;;4.42;70.30
68107;BME280;54892;47.488;19.026;2023-04-07T07:01:52;99789.19;;;4.54;70.45
68107;BME280;54892;47.488;19.026;2023-04-07T07:04:55;99796.25;;;4.53;71.09
68107;BME280;54892;47.488;19.026;2023-04-07T07:08:00;99793.47;;;4.67;71.53
68107;BME280;54892;47.488;19.026;2023-04-07T07:11:03;99798.13;;;4.46;70.69
68107;BME280;54892;47.488;19.026;2023-04-07T07:14:06;99802.72;;;4.51;71.56
68107;BME280;54892;47.488;19.026;2023-04-07T07:17:09;99811.75;;;4.67;71.82
68107;BME280;54892;47.488;19.026;2023-04-07T07:20:12;99817.81;;;4.49;73.21
68107;BME280;54892;47.488;19.026;2023-04-07T07:23:16;99826.25;;;4.32;75.06
68107;BME280;54892;47.488;19.026;2023-04-07T07:26:19;99832.19;;;4.39;76.37
68107;BME280;54892;47.488;19.026;2023-04-07T07:29:23;99824.50;;;4.45;77.04
68107;BME280;54892;47.488;19.026;2023-04-07T07:32:25;99835.44;;;4.35;76.24
68107;BME280;54892;47.488;19.026;2023-04-07T07:35:29;99843.78;;;4.44;77.24
68107;BME280;54892;47.488;19.026;2023-04-07T07:38:34;99835.38;;;4.60;76.70
68107;BME280;54892;47.488;19.026;2023-04-07T07:41:38;99834.78;;;4.58;76.59
68107;BME280;54892;47.488;19.026;2023-04-07T07:44:42;99839.00;;;4.59;75.62
68107;BME280;54892;47.488;19.026;2023-04-07T07:47:45;99835.81;;;4.57;76.11
68107;BME280;54892;47.488;19.026;2023-04-07T07:50:47;99839.16;;;4.64;76.73
68107;BME280;54892;47.488;19.026;2023-04-07T07:53:52;99840.87;;;4.70;75.66
68107;BME280;54892;47.488;19.026;2023-04-07T07:56:56;99852.50;;;4.56;75.73
68107;BME280;54892;47.488;19.026;2023-04-07T07:59:59;99853.31;;;4.56;75.95
68107;BME280;54892;47.488;19.026;2023-04-07T08:03:02;99856.34;;;4.72;76.10
68107;BME280;54892;47.488;19.026;2023-04-07T08:06:05;99861.78;;;4.70;76.33
68107;BME280;54892;47.488;19.026;2023-04-07T08:09:11;99868.19;;;4.75;75.28
68107;BME280;54892;47.488;19.026;2023-04-07T08:12:14;99868.94;;;4.94;75.83
68107;BME280;54892;47.488;19.026;2023-04-07T08:15:16;99867.25;;;4.99;74.91
68107;BME280;54892;47.488;19.026;2023-04-07T08:18:19;99873.66;;;5.03;76.03
68107;BME280;54892;47.488;19.026;2023-04-07T08:21:22;99869.47;;;4.84;75.78
68107;BME280;54892;47.488;19.026;2023-04-07T08:24:30;99878.06;;;4.72;75.72
68107;BME280;54892;47.488;19.026;2023-04-07T08:27:32;99875.00;;;4.57;76.78
68107;BME280;54892;47.488;19.026;2023-04-07T08:30:36;99873.75;;;4.78;77.21
68107;BME280;54892;47.488;19.026;2023-04-07T08:33:39;99873.47;;;4.86;76.90
68107;BME280;54892;47.488;19.026;2023-04-07T08:36:43;99873.41;;;4.93;75.80
68107;BME280;54892;47.488;19.026;2023-04-07T08:39:48;99880.19;;;5.13;74.35
68107;BME280;54892;47.488;19.026;2023-04-07T08:42:51;99882.66;;;5.08;74.66
68107;BME280;54892;47.488;19.026;2023-04-07T08:45:54;99878.28;;;5.20;74.20
68107;BME280;54892;47.488;19.026;2023-04-07T08:48:58;99871.44;;;5.19;73.68
68107;BME280;54892;47.488;19.026;2023-04-07T08:52:02;99884.13;;;5.03;74.54
68107;BME280;54892;47.488;19.026;2023-04-07T08:55:11;99881.84;;;5.07;74.60
68107;BME280;54892;47.488;19.026;2023-04-07T08:58:14;99886.53;;;5.05;74.96
68107;BME280;54892;47.488;19.026;2023-04-07T09:01:18;99880.66;;;5.22;74.01
68107;BME280;54892;47.488;19.026;2023-04-07T09:04:22;99878.47;;;5.49;73.55
68107;BME280;54892;47.488;19.026;2023-04-07T09:07:25;99881.41;;;5.41;72.18
68107;BME280;54892;47.488;19.026;2023-04-07T09:10:30;99886.22;;;5.44;73.41
68107;BME280;54892;47.488;19.026;2023-04-07T09:13:33;99881.75;;;5.44;73.26
68107;BME280;54892;47.488;19.026;2023-04-07T09:16:36;99878.37;;;5.44;72.82
68107;BME280;54892;47.488;19.026;2023-04-07T09:19:39;99880.41;;;5.42;72.77
68107;BME280;54892;47.488;19.026;2023-04-07T09:22:43;99882.97;;;5.60;73.68
68107;BME280;54892;47.488;19.026;2023-04-07T09:25:47;99880.00;;;5.69;73.04
68107;BME280;54892;47.488;19.026;2023-04-07T09:28:51;99885.53;;;5.48;73.41
68107;BME280;54892;47.488;19.026;2023-04-07T09:31:55;99881.09;;;5.49;71.82
68107;BME280;54892;47.488;19.026;2023-04-07T09:34:58;99886.84;;;5.70;72.71
68107;BME280;54892;47.488;19.026;2023-04-07T09:38:02;99876.97;;;5.84;71.52
68107;BME280;54892;47.488;19.026;2023-04-07T09:41:07;99887.28;;;5.67;72.05
68107;BME280;54892;47.488;19.026;2023-04-07T09:44:11;99882.75;;;5.74;73.29
68107;BME280;54892;47.488;19.026;2023-04-07T09:47:14;99881.06;;;5.91;72.23
68107;BME280;54892;47.488;19.026;2023-04-07T09:50:21;99886.78;;;6.12;72.09
68107;BME280;54892;47.488;19.026;2023-04-07T09:53:39;99882.81;;;6.09;70.81
68107;BME280;54892;47.488;19.026;2023-04-07T09:56:44;99887.81;;;6.11;71.64
68107;BME280;54892;47.488;19.026;2023-04-07T09:59:47;99889.00;;;10.42;100.00
68107;BME280;54892;47.488;19.026;2023-04-07T10:02:50;99894.63;;;12.73;100.00
68107;BME280;54892;47.488;19.026;2023-04-07T10:05:53;99889.44;;;14.36;84.68
68107;BME280;54892;47.488;19.026;2023-04-07T10:08:57;99885.88;;;14.70;82.74
68107;BME280;54892;47.488;19.026;2023-04-07T10:12:01;99886.34;;;14.77;76.72
68107;BME280;54892;47.488;19.026;2023-04-07T10:15:05;99899.41;;;15.31;74.01
68107;BME280;54892;47.488;19.026;2023-04-07T10:18:08;99895.25;;;15.25;67.56
68107;BME280;54892;47.488;19.026;2023-04-07T10:21:11;99891.44;;;13.96;62.22
68107;BME280;54892;47.488;19.026;2023-04-07T10:24:18;99894.56;;;11.71;53.21
68107;BME280;54892;47.488;19.026;2023-04-07T10:27:28;99902.75;;;10.49;68.91
68107;BME280;54892;47.488;19.026;2023-04-07T10:30:32;99896.69;;;12.06;75.72
68107;BME280;54892;47.488;19.026;2023-04-07T10:33:46;99905.56;;;12.51;74.59
68107;BME280;54892;47.488;19.026;2023-04-07T10:37:08;99899.06;;;11.92;56.43
68107;BME280;54892;47.488;19.026;2023-04-07T10:40:26;99890.41;;;10.17;57.50
68107;BME280;54892;47.488;19.026;2023-04-07T10:43:37;99895.56;;;9.32;61.42
68107;BME280;54892;47.488;19.026;2023-04-07T10:47:00;99899.31;;;8.47;62.83
68107;BME280;54892;47.488;19.026;2023-04-07T10:50:14;99898.88;;;8.16;64.56
68107;BME280;54892;47.488;19.026;2023-04-07T10:53:17;99909.81;;;7.90;65.05
68107;BME280;54892;47.488;19.026;2023-04-07T10:56:20;99898.50;;;7.73;64.81
68107;BME280;54892;47.488;19.026;2023-04-07T10:59:24;99902.31;;;7.65;65.61
68107;BME280;54892;47.488;19.026;2023-04-07T11:02:31;99901.63;;;7.70;65.71
68107;BME280;54892;47.488;19.026;2023-04-07T11:05:35;99905.69;;;7.77;65.69
68107;BME280;54892;47.488;19.026;2023-04-07T11:08:40;99905.81;;;7.54;65.45
68107;BME280;54892;47.488;19.026;2023-04-07T11:11:43;99904.72;;;7.67;66.11
68107;BME280;54892;47.488;19.026;2023-04-07T11:14:49;99906.72;;;7.76;65.76
68107;BME280;54892;47.488;19.026;2023-04-07T11:21:17;99896.44;;;7.58;65.02
68107;BME280;54892;47.488;19.026;2023-04-07T11:24:32;99904.13;;;7.47;66.14
68107;BME280;54892;47.488;19.026;2023-04-07T11:27:35;99904.50;;;7.39;65.44
68107;BME280;54892;47.488;19.026;2023-04-07T11:30:45;99909.37;;;7.47;66.45
68107;BME280;54892;47.488;19.026;2023-04-07T11:33:50;99902.41;;;7.70;64.01
68107;BME280;54892;47.488;19.026;2023-04-07T11:36:53;99905.84;;;7.25;65.86
68107;BME280;54892;47.488;19.026;2023-04-07T11:40:00;99905.69;;;7.31;66.76
68107;BME280;54892;47.488;19.026;2023-04-07T11:43:14;99899.81;;;7.41;66.25
68107;BME280;54892;47.488;19.026;2023-04-07T11:46:18;99896.53;;;7.34;66.20
68107;BME280;54892;47.488;19.026;2023-04-07T11:49:22;99898.78;;;7.42;66.42
68107;BME280;54892;47.488;19.026;2023-04-07T11:52:25;99898.31;;;7.45;66.41
68107;BME280;54892;47.488;19.026;2023-04-07T11:55:28;99903.34;;;7.47;64.63
68107;BME280;54892;47.488;19.026;2023-04-07T11:58:31;99895.56;;;7.23;66.88
68107;BME280;54892;47.488;19.026;2023-04-07T12:01:39;99904.09;;;7.30;67.34
68107;BME280;54892;47.488;19.026;2023-04-07T12:04:54;99906.41;;;7.27;66.15
68107;BME280;54892;47.488;19.026;2023-04-07T12:07:57;99907.66;;;7.24;66.80
68107;BME280;54892;47.488;19.026;2023-04-07T12:11:01;99905.84;;;7.25;67.25
68107;BME280;54892;47.488;19.026;2023-04-07T12:14:04;99907.44;;;7.26;66.49
68107;BME280;54892;47.488;19.026;2023-04-07T12:17:20;99905.50;;;7.21;66.55
68107;BME280;54892;47.488;19.026;2023-04-07T12:20:23;99909.34;;;7.30;67.37
68107;BME280;54892;47.488;19.026;2023-04-07T12:23:26;99898.97;;;7.24;68.42
68107;BME280;54892;47.488;19.026;2023-04-07T12:26:29;99899.44;;;7.21;67.80
68107;BME280;54892;47.488;19.026;2023-04-07T12:29:32;99899.44;;;7.21;68.29
68107;BME280;54892;47.488;19.026;2023-04-07T12:32:36;99891.63;;;7.38;66.76
68107;BME280;54892;47.488;19.026;2023-04-07T12:35:39;99895.22;;;7.20;67.01
68107;BME280;54892;47.488;19.026;2023-04-07T12:38:42;99895.97;;;7.03;68.51
68107;BME280;54892;47.488;19.026;2023-04-07T12:41:46;99898.03;;;7.01;67.58
68107;BME280;54892;47.488;19.026;2023-04-07T12:44:49;99901.72;;;7.00;67.48
68107;BME280;54892;47.488;19.026;2023-04-07T12:47:54;99895.28;;;7.08;67.80
68107;BME280;54892;47.488;19.026;2023-04-07T12:50:57;99897.38;;;7.23;66.79
68107;BME280;54892;47.488;19.026;2023-04-07T12:54:01;99903.91;;;7.20;67.55
68107;BME280;54892;47.488;19.026;2023-04-07T12:57:04;99903.22;;;7.25;66.27
68107;BME280;54892;47.488;19.026;2023-04-07T13:00:07;99904.00;;;7.25;66.13
68107;BME280;54892;47.488;19.026;2023-04-07T13:03:12;99903.28;;;7.01;67.72
68107;BME280;54892;47.488;19.026;2023-04-07T13:06:15;99911.81;;;7.08;68.23
68107;BME280;54892;47.488;19.026;2023-04-07T13:09:20;99905.66;;;7.14;67.72
68107;BME280;54892;47.488;19.026;2023-04-07T13:12:22;99916.00;;;7.21;67.92
68107;BME280;54892;47.488;19.026;2023-04-07T13:15:26;99905.25;;;7.23;67.56
68107;BME280;54892;47.488;19.026;2023-04-07T13:18:31;99905.25;;;7.23;67.80
68107;BME280;54892;47.488;19.026;2023-04-07T13:21:34;99903.44;;;7.23;67.39
68107;BME280;54892;47.488;19.026;2023-04-07T13:24:45;99907.44;;;7.26;67.07
68107;BME280;54892;47.488;19.026;2023-04-07T13:27:48;99901.03;;;7.22;67.10
68107;BME280;54892;47.488;19.026;2023-04-07T13:30:52;99905.25;;;7.23;67.18
68107;BME280;54892;47.488;19.026;2023-04-07T13:33:56;99903.78;;;7.27;66.68
68107;BME280;54892;47.488;19.026;2023-04-07T13:36:59;99905.94;;;7.30;67.08
68107;BME280;54892;47.488;19.026;2023-04-07T13:40:03;99901.22;;;7.32;66.65
68107;BME280;54892;47.488;19.026;2023-04-07T13:43:06;99905.22;;;7.35;66.76
68107;BME280;54892;47.488;19.026;2023-04-07T13:46:11;99906.81;;;7.36;67.13
68107;BME280;54892;47.488;19.026;2023-04-07T13:49:26;99908.16;;;7.38;66.95
68107;BME280;54892;47.488;19.026;2023-04-07T13:52:29;99910.50;;;7.52;64.76
68107;BME280;54892;47.488;19.026;2023-04-07T13:55:36;99922.66;;;7.12;66.41
68107;BME280;54892;47.488;19.026;2023-04-07T13:58:39;99920.25;;;7.10;66.86
68107;BME280;54892;47.488;19.026;2023-04-07T14:01:42;99919.56;;;7.15;66.75
68107;BME280;54892;47.488;19.026;2023-04-07T14:04:46;99925.41;;;7.05;66.57
68107;BME280;54892;47.488;19.026;2023-04-07T14:07:49;99922.22;;;7.03;67.21
68107;BME280;54892;47.488;19.026;2023-04-07T14:10:52;99925.41;;;7.05;66.98
68107;BME280;54892;47.488;19.026;2023-04-07T14:13:55;99922.72;;;7.00;66.15
68107;BME280;54892;47.488;19.026;2023-04-07T14:16:58;99915.66;;;6.89;66.85
68107;BME280;54892;47.488;19.026;2023-04-07T14:20:04;99915.56;;;6.83;67.21
68107;BME280;54892;47.488;19.026;2023-04-07T14:23:07;99921.59;;;6.84;67.57
68107;BME280;54892;47.488;19.026;2023-04-07T14:26:10;99923.75;;;6.87;67.69
68107;BME280;54892;47.488;19.026;2023-04-07T14:29:13;99917.16;;;6.84;67.62
68107;BME280;54892;47.488;19.026;2023-04-07T14:32:17;99915.88;;;6.87;68.04
68107;BME280;54892;47.488;19.026;2023-04-07T14:35:22;99925.78;;;6.97;67.95
68107;BME280;54892;47.488;19.026;2023-04-07T14:38:25;99926.91;;;7.01;68.00
68107;BME280;54892;47.488;19.026;2023-04-07T14:41:28;99923.72;;;6.99;68.09
68107;BME280;54892;47.488;19.026;2023-04-07T14:44:32;99923.94;;;6.97;67.70
68107;BME280;54892;47.488;19.026;2023-04-07T14:47:35;99925.50;;;7.10;66.98
68107;BME280;54892;47.488;19.026;2023-04-07T14:50:39;99929.75;;;7.11;66.34
68107;BME280;54892;47.488;19.026;2023-04-07T14:53:43;99932.16;;;7.01;67.07
68107;BME280;54892;47.488;19.026;2023-04-07T14:56:46;99922.78;;;7.05;66.43
68107;BME280;54892;47.488;19.026;2023-04-07T14:59:49;99931.50;;;6.94;66.97
68107;BME280;54892;47.488;19.026;2023-04-07T15:02:53;99928.88;;;6.82;67.47
68107;BME280;54892;47.488;19.026;2023-04-07T15:05:57;99924.09;;;6.91;67.43
68107;BME280;54892;47.488;19.026;2023-04-07T15:09:00;99931.63;;;6.87;67.17
68107;BME280;54892;47.488;19.026;2023-04-07T15:12:03;99927.28;;;6.81;67.74
68107;BME280;54892;47.488;19.026;2023-04-07T15:15:06;99930.50;;;6.83;67.98
68107;BME280;54892;47.488;19.026;2023-04-07T15:18:09;99931.84;;;6.85;68.08
68107;BME280;54892;47.488;19.026;2023-04-07T15:21:13;99935.59;;;6.90;68.12
68107;BME280;54892;47.488;19.026;2023-04-07T15:24:17;99936.75;;;6.94;68.37
68107;BME280;54892;47.488;19.026;2023-04-07T15:27:21;99935.94;;;6.93;68.11
68107;BME280;54892;47.488;19.026;2023-04-07T15:30:24;99934.69;;;6.96;67.71
68107;BME280;54892;47.488;19.026;2023-04-07T15:33:27;99932.97;;;7.01;67.07
68107;BME280;54892;47.488;19.026;2023-04-07T15:36:31;99936.59;;;7.00;67.06
68107;BME280;54892;47.488;19.026;2023-04-07T15:39:34;99935.47;;;6.96;67.13
68107;BME280;54892;47.488;19.026;2023-04-07T15:42:37;99939.37;;;6.82;67.94
68107;BME280;54892;47.488;19.026;2023-04-07T15:45:42;99943.28;;;6.79;68.01
68107;BME280;54892;47.488;19.026;2023-04-07T15:48:45;99945.09;;;6.79;68.38
68107;BME280;54892;47.488;19.026;2023-04-07T15:51:49;99943.16;;;6.74;68.21
68107;BME280;54892;47.488;19.026;2023-04-07T15:54:53;99940.31;;;6.76;68.28
68107;BME280;54892;47.488;19.026;2023-04-07T15:57:56;99936.00;;;6.69;68.64
68107;BME280;54892;47.488;19.026;2023-04-07T16:00:59;99943.16;;;6.86;68.00
68107;BME280;54892;47.488;19.026;2023-04-07T16:04:02;99942.84;;;6.70;68.54
68107;BME280;54892;47.488;19.026;2023-04-07T16:07:07;99940.22;;;6.59;69.26
68107;BME280;54892;47.488;19.026;2023-04-07T16:10:10;99951.28;;;6.61;69.57
68107;BME280;54892;47.488;19.026;2023-04-07T16:13:14;99949.56;;;6.54;69.20
68107;BME280;54892;47.488;19.026;2023-04-07T16:16:16;99950.13;;;6.57;69.40
68107;BME280;54892;47.488;19.026;2023-04-07T16:19:20;99953.25;;;6.53;69.83